createdAt,value
2019-02-21T00:01:08.079Z,57.01
2019-02-21T00:03:56.016Z,56.79
2019-02-21T00:06:46.412Z,56.63
2019-02-21T00:09:33.734Z,56.69
2019-02-21T00:12:21.365Z,56.67
2019-02-21T00:15:08.988Z,56.67
2019-02-21T00:17:56.131Z,56.74
2019-02-21T00:20:43.841Z,56.78
2019-02-21T00:23:31.065Z,57.02
2019-02-21T00:26:18.585Z,56.96
2019-02-21T00:29:06.314Z,56.93
2019-02-21T00:31:53.433Z,56.89
2019-02-21T00:34:40.962Z,56.85
2019-02-21T00:37:28.283Z,56.86
2019-02-21T00:40:15.812Z,57.37
2019-02-21T00:43:03.438Z,57.35
2019-02-21T00:45:51.067Z,57.23
2019-02-21T00:48:38.391Z,57.24
2019-02-21T00:51:26.121Z,57.14
2019-02-21T00:54:13.547Z,57.10
2019-02-21T00:57:00.657Z,57.15
2019-02-21T00:59:50.747Z,57.02
2019-02-21T01:02:37.349Z,57.00
2019-02-21T01:05:25.187Z,57.03
2019-02-21T01:08:13.214Z,57.06
2019-02-21T01:11:00.651Z,57.01
2019-02-21T01:13:47.970Z,57.04
2019-02-21T01:16:35.495Z,57.05
2019-02-21T01:19:22.618Z,57.22
2019-02-21T01:22:10.144Z,57.37
2019-02-21T01:24:57.869Z,57.33
2019-02-21T01:27:45.603Z,57.17
2019-02-21T01:30:33.232Z,57.14
2019-02-21T01:33:20.394Z,57.08
2019-02-21T01:36:08.210Z,57.21
2019-02-21T01:38:56.124Z,57.29
2019-02-21T01:41:44.565Z,58.17
2019-02-21T01:44:32.186Z,58.03
2019-02-21T01:47:19.740Z,57.99
2019-02-21T01:50:08.642Z,58.13
2019-02-21T01:52:56.054Z,58.72
2019-02-21T01:55:44.347Z,58.97
2019-02-21T01:58:31.670Z,58.86
2019-02-21T02:01:19.511Z,58.95
2019-02-21T02:04:07.132Z,58.43
2019-02-21T02:06:54.659Z,58.17
2019-02-21T02:09:42.183Z,58.62
2019-02-21T02:12:29.817Z,58.55
2019-02-21T02:15:17.649Z,58.34
2019-02-21T02:18:05.583Z,58.03
2019-02-21T02:20:53.211Z,57.84
2019-02-21T02:23:40.739Z,57.75
2019-02-21T02:26:28.370Z,57.70
2019-02-21T02:29:15.894Z,57.68
2019-02-21T02:32:03.631Z,57.60
2019-02-21T02:34:51.055Z,57.80
2019-02-21T02:37:38.477Z,57.73
2019-02-21T02:40:27.843Z,57.78
2019-02-21T02:43:15.478Z,57.76
2019-02-21T02:46:03.207Z,57.83
2019-02-21T02:48:50.731Z,57.67
2019-02-21T02:51:38.567Z,57.76
2019-02-21T02:54:25.888Z,57.87
2019-02-21T02:57:13.718Z,58.02
2019-02-21T03:00:01.143Z,58.12
2019-02-21T03:02:48.892Z,58.13
2019-02-21T03:05:36.298Z,58.08
2019-02-21T03:08:23.826Z,58.23
2019-02-21T03:11:11.562Z,58.49
2019-02-21T03:13:59.293Z,58.54
2019-02-21T03:16:46.407Z,58.56
2019-02-21T03:19:34.138Z,58.70
2019-02-21T03:22:21.868Z,58.68
2019-02-21T03:25:09.086Z,58.77
2019-02-21T03:27:56.512Z,58.81
2019-02-21T03:30:44.143Z,58.93
2019-02-21T03:33:31.745Z,58.85
2019-02-21T03:36:18.997Z,59.51
2019-02-21T03:39:08.667Z,59.67
2019-02-21T03:41:56.294Z,60.05
2019-02-21T03:44:43.616Z,60.54
2019-02-21T03:47:31.161Z,61.28
2019-02-21T03:50:18.679Z,61.75
2019-02-21T03:53:06.509Z,61.49
2019-02-21T03:55:54.570Z,61.31
2019-02-21T03:58:42.182Z,61.52
2019-02-21T04:01:29.697Z,61.74
2019-02-21T04:04:17.536Z,61.30
2019-02-21T04:07:04.881Z,60.77
2019-02-21T04:09:51.973Z,60.49
2019-02-21T04:12:39.206Z,60.26
2019-02-21T04:15:26.816Z,60.03
2019-02-21T04:18:14.354Z,59.78
2019-02-21T04:21:01.927Z,60.42
2019-02-21T04:23:50.543Z,60.69
2019-02-21T04:26:38.053Z,61.14
2019-02-21T04:29:24.965Z,61.08
2019-02-21T04:32:17.096Z,61.22
2019-02-21T04:35:01.003Z,61.82
2019-02-21T04:37:48.565Z,61.70
2019-02-21T04:40:36.098Z,62.75
2019-02-21T04:43:23.720Z,62.57
2019-02-21T04:46:11.353Z,61.86
2019-02-21T04:48:58.569Z,62.22
2019-02-21T04:51:46.401Z,63.15
2019-02-21T04:54:33.936Z,62.64
2019-02-21T04:57:21.762Z,61.55
2019-02-21T05:00:11.807Z,61.05
2019-02-21T05:02:58.973Z,60.48
2019-02-21T05:05:46.596Z,60.15
2019-02-21T05:08:34.026Z,59.94
2019-02-21T05:11:21.852Z,59.67
2019-02-21T05:14:08.972Z,59.66
2019-02-21T05:16:56.191Z,59.54
2019-02-21T05:19:43.924Z,59.32
2019-02-21T05:22:31.345Z,59.40
2019-02-21T05:25:19.081Z,59.88
2019-02-21T05:28:23.193Z,60.39
2019-02-21T05:31:12.566Z,60.40
2019-02-21T05:34:01.668Z,60.57
2019-02-21T05:36:50.687Z,61.06
2019-02-21T05:39:55.173Z,60.85
2019-02-21T05:43:02.705Z,61.29
2019-02-21T05:46:10.211Z,62.30
2019-02-21T05:48:59.887Z,62.11
2019-02-21T05:51:54.778Z,62.86
2019-02-21T05:54:58.631Z,62.65
2019-02-21T05:57:48.263Z,63.01
2019-02-21T06:00:37.637Z,62.55
2019-02-21T06:03:26.694Z,62.21
2019-02-21T06:06:19.039Z,62.62
2019-02-21T06:09:14.956Z,62.18
2019-02-21T06:12:03.812Z,61.83
2019-02-21T06:14:56.124Z,62.19
2019-02-21T06:17:48.185Z,62.23
2019-02-21T06:20:37.176Z,62.18
2019-02-21T06:23:29.180Z,62.05
2019-02-21T06:26:21.109Z,62.22
2019-02-21T06:29:10.790Z,62.01
2019-02-21T06:31:58.413Z,61.97
2019-02-21T06:34:46.048Z,62.34
2019-02-21T06:37:33.363Z,62.80
2019-02-21T06:40:20.481Z,62.32
2019-02-21T06:43:08.119Z,62.51
2019-02-21T06:45:57.818Z,63.66
2019-02-21T06:48:44.289Z,62.29
2019-02-21T06:51:32.391Z,61.64
2019-02-21T06:54:19.752Z,61.47
2019-02-21T06:57:07.177Z,61.79
2019-02-21T06:59:54.803Z,61.42
2019-02-21T07:02:42.023Z,61.84
2019-02-21T07:05:29.550Z,62.93
2019-02-21T07:08:16.895Z,62.59
2019-02-21T07:11:06.503Z,62.27
2019-02-21T07:13:53.358Z,62.05
2019-02-21T07:16:40.786Z,63.00
2019-02-21T07:19:28.106Z,62.24
2019-02-21T07:22:17.952Z,61.69
2019-02-21T07:25:07.471Z,61.65
2019-02-21T07:27:55.090Z,61.42
2019-02-21T07:30:43.621Z,61.57
2019-02-21T07:33:31.267Z,61.52
2019-02-21T07:36:18.382Z,62.30
2019-02-21T07:39:18.310Z,61.89
2019-02-21T07:41:59.796Z,61.52
2019-02-21T07:44:47.179Z,61.47
2019-02-21T07:47:34.736Z,61.44
2019-02-21T07:50:23.378Z,61.97
2019-02-21T07:53:11.109Z,62.07
2019-02-21T07:55:58.401Z,61.14
2019-02-21T07:58:45.765Z,61.28
2019-02-21T08:01:33.392Z,60.72
2019-02-21T08:04:21.328Z,60.32
2019-02-21T08:07:08.448Z,59.96
2019-02-21T08:09:57.611Z,59.76
2019-02-21T08:12:44.736Z,59.51
2019-02-21T08:15:32.364Z,59.44
2019-02-21T08:18:19.684Z,59.43
2019-02-21T08:21:07.308Z,59.43
2019-02-21T08:23:54.938Z,59.35
2019-02-21T08:26:42.403Z,59.65
2019-02-21T08:29:29.819Z,60.40
2019-02-21T08:32:18.947Z,60.17
2019-02-21T08:35:07.049Z,60.92
2019-02-21T08:37:54.313Z,60.90
2019-02-21T08:40:41.541Z,60.42
2019-02-21T08:43:28.644Z,59.68
2019-02-21T08:46:18.247Z,60.15
2019-02-21T08:49:04.925Z,60.21
2019-02-21T08:51:54.986Z,59.67
2019-02-21T08:54:41.515Z,59.87
2019-02-21T08:57:29.558Z,59.80
2019-02-21T09:00:17.624Z,59.41
2019-02-21T09:03:05.570Z,59.06
2019-02-21T09:05:53.159Z,58.85
2019-02-21T09:08:41.196Z,59.52
2019-02-21T09:11:28.517Z,59.64
2019-02-21T09:14:16.044Z,59.69
2019-02-21T09:17:03.475Z,59.75
2019-02-21T09:19:51.099Z,60.14
2019-02-21T09:22:38.931Z,59.88
2019-02-21T09:25:26.605Z,59.13
2019-02-21T09:28:15.834Z,58.70
2019-02-21T09:31:03.064Z,58.89
2019-02-21T09:33:50.797Z,58.78
2019-02-21T09:36:38.414Z,58.74
2019-02-21T09:39:26.161Z,58.59
2019-02-21T09:42:13.974Z,58.45
2019-02-21T09:45:01.312Z,59.24
2019-02-21T09:47:48.845Z,60.92
2019-02-21T09:50:36.571Z,60.35
2019-02-21T09:53:24.080Z,59.81
2019-02-21T09:56:11.504Z,59.62
2019-02-21T09:58:58.722Z,60.06
2019-02-21T10:01:46.659Z,59.80
2019-02-21T10:04:34.176Z,60.41
2019-02-21T10:07:21.812Z,61.17
2019-02-21T10:10:19.798Z,60.64
2019-02-21T10:13:07.109Z,60.71
2019-02-21T10:15:54.531Z,61.18
2019-02-21T10:18:41.761Z,61.01
2019-02-21T10:21:29.486Z,61.00
2019-02-21T10:24:16.808Z,60.72
2019-02-21T10:27:04.639Z,60.30
2019-02-21T10:29:52.367Z,59.47
2019-02-21T10:32:39.587Z,58.38
2019-02-21T10:35:27.113Z,57.91
2019-02-21T10:38:14.438Z,58.10
2019-02-21T10:41:01.659Z,57.61
2019-02-21T10:43:49.090Z,57.28
2019-02-21T10:46:36.607Z,57.00
2019-02-21T10:49:23.828Z,57.64
2019-02-21T10:52:10.945Z,57.53
2019-02-21T10:54:58.265Z,56.48
2019-02-21T10:57:46.109Z,56.38
2019-02-21T11:00:33.623Z,55.82
2019-02-21T11:03:20.857Z,56.24
2019-02-21T11:06:08.434Z,56.46
2019-02-21T11:08:56.203Z,55.87
2019-02-21T11:11:43.730Z,55.60
2019-02-21T11:14:32.178Z,55.33
2019-02-21T11:17:19.694Z,54.94
2019-02-21T11:20:10.097Z,55.16
2019-02-21T11:22:57.734Z,54.78
2019-02-21T11:25:45.161Z,54.08
2019-02-21T11:28:32.987Z,53.73
2019-02-21T11:31:20.826Z,52.46
2019-02-21T11:34:08.551Z,52.09
2019-02-21T11:36:56.291Z,52.63
2019-02-21T11:39:43.601Z,53.23
2019-02-21T11:42:31.231Z,53.82
2019-02-21T11:45:22.159Z,53.15
2019-02-21T11:48:09.973Z,51.80
2019-02-21T11:50:57.807Z,51.21
2019-02-21T11:53:45.743Z,50.53
2019-02-21T11:56:33.269Z,50.22
2019-02-21T11:59:20.589Z,50.22
2019-02-21T12:02:07.811Z,49.88
2019-02-21T12:04:55.335Z,49.28
2019-02-21T12:07:42.863Z,48.86
2019-02-21T12:10:30.592Z,49.36
2019-02-21T12:13:18.428Z,49.67
2019-02-21T12:16:05.650Z,49.20
2019-02-21T12:18:52.875Z,49.71
2019-02-21T12:21:40.394Z,49.44
2019-02-21T12:24:27.923Z,49.23
2019-02-21T12:27:15.243Z,49.36
2019-02-21T12:30:02.573Z,48.77
2019-02-21T12:32:50.189Z,49.32
2019-02-21T12:35:37.851Z,50.15
2019-02-21T12:38:25.041Z,49.57
2019-02-21T12:41:12.269Z,49.19
2019-02-21T12:44:00.092Z,49.24
2019-02-21T12:46:47.414Z,49.32
2019-02-21T12:49:34.738Z,50.49
2019-02-21T12:52:22.365Z,50.99
2019-02-21T12:55:11.280Z,51.23
2019-02-21T12:57:58.559Z,51.70
2019-02-21T13:00:46.377Z,51.47
2019-02-21T13:03:34.615Z,51.44
2019-02-21T13:06:21.745Z,51.23
2019-02-21T13:09:09.470Z,51.56
2019-02-21T13:11:56.999Z,51.75
2019-02-21T13:14:44.628Z,50.94
2019-02-21T13:17:31.947Z,50.34
2019-02-21T13:20:19.883Z,49.98
2019-02-21T13:23:07.527Z,49.64
2019-02-21T13:25:55.243Z,50.10
2019-02-21T13:28:42.667Z,50.24
2019-02-21T13:31:29.995Z,49.57
2019-02-21T13:34:17.416Z,49.18
2019-02-21T13:37:04.964Z,48.78
2019-02-21T13:39:52.366Z,49.43
2019-02-21T13:42:39.995Z,49.38
2019-02-21T13:45:27.932Z,49.82
2019-02-21T13:48:16.581Z,49.47
2019-02-21T13:51:03.608Z,49.56
2019-02-21T13:53:52.332Z,49.47
2019-02-21T13:56:40.190Z,49.13
2019-02-21T13:59:27.321Z,50.11
2019-02-21T14:02:15.429Z,50.26
2019-02-21T14:05:02.972Z,49.84
2019-02-21T14:07:50.710Z,49.53
2019-02-21T14:10:38.138Z,49.01
2019-02-21T14:13:25.553Z,49.21
2019-02-21T14:16:13.692Z,49.47
2019-02-21T14:19:00.809Z,49.40
2019-02-21T14:21:48.645Z,49.71
2019-02-21T14:24:37.378Z,49.82
2019-02-21T14:27:24.928Z,50.16
2019-02-21T14:30:20.645Z,50.30
2019-02-21T14:33:08.272Z,50.59
2019-02-21T14:35:56.004Z,50.61
2019-02-21T14:38:43.743Z,50.73
2019-02-21T14:41:30.859Z,50.55
2019-02-21T14:44:18.498Z,50.25
2019-02-21T14:47:07.940Z,50.07
2019-02-21T14:49:54.570Z,50.60
2019-02-21T14:52:42.087Z,50.90
2019-02-21T14:55:30.257Z,51.69
2019-02-21T14:58:17.446Z,52.41
2019-02-21T15:01:05.946Z,51.56
2019-02-21T15:03:53.336Z,51.02
2019-02-21T15:06:40.639Z,50.75
2019-02-21T15:09:27.756Z,50.82
2019-02-21T15:12:15.487Z,51.24
2019-02-21T15:15:03.156Z,51.68
2019-02-21T15:17:51.052Z,52.51
2019-02-21T15:20:38.580Z,52.45
2019-02-21T15:23:26.108Z,51.97
2019-02-21T15:26:13.530Z,51.79
2019-02-21T15:29:01.263Z,52.00
2019-02-21T15:31:48.632Z,51.67
2019-02-21T15:34:35.908Z,51.55
2019-02-21T15:37:23.637Z,51.29
2019-02-21T15:40:11.061Z,51.11
2019-02-21T15:42:58.494Z,51.37
2019-02-21T15:45:45.704Z,51.19
2019-02-21T15:48:33.438Z,51.51
2019-02-21T15:51:20.766Z,51.47
2019-02-21T15:54:08.453Z,51.19
2019-02-21T15:56:56.223Z,51.45
2019-02-21T15:59:43.645Z,51.61
2019-02-21T16:02:31.172Z,52.39
2019-02-21T16:05:18.697Z,52.26
2019-02-21T16:08:06.191Z,51.79
2019-02-21T16:10:53.651Z,51.48
2019-02-21T16:13:41.543Z,52.08
2019-02-21T16:16:30.969Z,51.98
2019-02-21T16:19:18.381Z,51.81
2019-02-21T16:22:05.908Z,51.93
2019-02-21T16:24:53.332Z,51.93
2019-02-21T16:27:41.165Z,51.99
2019-02-21T16:30:28.489Z,52.59
2019-02-21T16:33:16.505Z,52.08
2019-02-21T16:36:04.055Z,52.07
2019-02-21T16:38:51.683Z,51.87
2019-02-21T16:41:39.308Z,52.17
2019-02-21T16:44:26.427Z,52.14
2019-02-21T16:47:14.391Z,52.31
2019-02-21T16:50:01.717Z,52.40
2019-02-21T16:52:49.313Z,52.35
2019-02-21T16:55:36.738Z,52.83
2019-02-21T16:58:24.059Z,53.00
2019-02-21T17:01:11.793Z,52.85
2019-02-21T17:03:59.216Z,53.42
2019-02-21T17:06:46.744Z,53.72
2019-02-21T17:09:33.859Z,54.00
2019-02-21T17:12:21.552Z,54.28
2019-02-21T17:15:17.220Z,54.22
2019-02-21T17:18:06.681Z,54.53
2019-02-21T17:20:53.998Z,54.85
2019-02-21T17:23:41.837Z,55.58
2019-02-21T17:26:30.896Z,55.71
2019-02-21T17:29:18.012Z,55.54
2019-02-21T17:32:05.438Z,55.84
2019-02-21T17:34:53.378Z,55.77
2019-02-21T17:37:41.035Z,55.67
2019-02-21T17:40:28.733Z,56.00
2019-02-21T17:43:16.365Z,55.71
2019-02-21T17:46:03.582Z,55.76
2019-02-21T17:48:50.701Z,55.82
2019-02-21T17:51:38.333Z,55.54
2019-02-21T17:54:27.793Z,55.60
2019-02-21T17:57:14.962Z,56.09
2019-02-21T18:00:02.564Z,56.43
2019-02-21T18:02:50.057Z,56.46
2019-02-21T18:05:37.910Z,56.18
2019-02-21T18:08:25.329Z,56.39
2019-02-21T18:11:12.965Z,56.91
2019-02-21T18:14:00.548Z,56.51
2019-02-21T18:16:47.809Z,56.69
2019-02-21T18:19:35.188Z,56.44
2019-02-21T18:22:22.473Z,56.11
2019-02-21T18:25:16.434Z,56.76
2019-02-21T18:28:03.859Z,56.88
2019-02-21T18:30:50.971Z,56.62
2019-02-21T18:33:38.397Z,56.92
2019-02-21T18:36:25.332Z,56.94
2019-02-21T18:39:13.472Z,56.89
2019-02-21T18:42:05.693Z,57.02
2019-02-21T18:44:52.907Z,56.83
2019-02-21T18:47:40.431Z,56.73
2019-02-21T18:50:37.623Z,56.77
2019-02-21T18:53:17.556Z,57.05
2019-02-21T18:56:05.779Z,57.28
2019-02-21T18:58:53.548Z,57.07
2019-02-21T19:01:40.725Z,56.99
2019-02-21T19:04:28.561Z,56.72
2019-02-21T19:07:15.984Z,56.75
2019-02-21T19:10:04.468Z,56.59
2019-02-21T19:12:51.858Z,57.02
2019-02-21T19:15:39.795Z,57.27
2019-02-21T19:18:28.861Z,56.98
2019-02-21T19:21:16.412Z,57.08
2019-02-21T19:24:04.009Z,57.13
2019-02-21T19:26:51.853Z,56.95
2019-02-21T19:29:39.073Z,56.88
2019-02-21T19:32:26.710Z,57.00
2019-02-21T19:35:14.383Z,56.83
2019-02-21T19:38:10.033Z,56.88
2019-02-21T19:40:50.612Z,57.16
2019-02-21T19:43:38.161Z,57.05
2019-02-21T19:46:25.556Z,57.10
2019-02-21T19:49:12.776Z,57.45
2019-02-21T19:52:00.403Z,57.56
2019-02-21T19:54:48.096Z,58.41
2019-02-21T19:57:35.869Z,58.10
2019-02-21T20:00:26.957Z,57.68
2019-02-21T20:03:14.198Z,57.67
2019-02-21T20:06:01.314Z,57.56
2019-02-21T20:08:50.383Z,57.97
2019-02-21T20:11:38.125Z,58.19
2019-02-21T20:14:26.771Z,57.82
2019-02-21T20:17:14.126Z,57.82
2019-02-21T20:20:02.499Z,57.63
2019-02-21T20:22:49.854Z,58.05
2019-02-21T20:25:36.866Z,57.57
2019-02-21T20:28:24.290Z,57.43
2019-02-21T20:31:12.167Z,58.04
2019-02-21T20:33:59.755Z,58.24
2019-02-21T20:36:50.985Z,58.57
2019-02-21T20:39:36.445Z,58.19
2019-02-21T20:42:24.670Z,58.23
2019-02-21T20:45:16.106Z,58.00
2019-02-21T20:48:03.227Z,58.05
2019-02-21T20:50:56.875Z,58.62
2019-02-21T20:53:39.611Z,58.59
2019-02-21T20:56:27.443Z,58.32
2019-02-21T20:59:14.970Z,58.53
2019-02-21T21:02:02.499Z,58.30
2019-02-21T21:04:50.033Z,58.73
2019-02-21T21:07:37.653Z,58.82
2019-02-21T21:10:25.384Z,58.45
2019-02-21T21:13:12.616Z,58.09
2019-02-21T21:16:00.335Z,58.18
2019-02-21T21:18:48.064Z,58.21
2019-02-21T21:21:35.692Z,59.43
2019-02-21T21:24:23.329Z,59.71
2019-02-21T21:27:11.057Z,60.09
2019-02-21T21:29:58.178Z,59.96
2019-02-21T21:32:45.361Z,60.06
2019-02-21T21:35:32.801Z,60.58
2019-02-21T21:38:24.229Z,60.68
2019-02-21T21:41:09.506Z,61.54
2019-02-21T21:43:57.033Z,60.90
2019-02-21T21:46:44.353Z,60.66
2019-02-21T21:49:31.983Z,60.97
2019-02-21T21:52:19.816Z,60.49
2019-02-21T21:55:07.550Z,60.59
2019-02-21T21:57:55.074Z,60.63
2019-02-21T22:00:42.808Z,60.96
2019-02-21T22:03:30.131Z,60.87
2019-02-21T22:06:17.555Z,61.09
2019-02-21T22:09:06.081Z,61.11
2019-02-21T22:11:53.225Z,61.18
2019-02-21T22:14:40.440Z,61.07
2019-02-21T22:17:27.863Z,61.39
2019-02-21T22:20:15.390Z,61.54
2019-02-21T22:23:02.817Z,61.38
2019-02-21T22:25:50.547Z,61.34
2019-02-21T22:28:38.688Z,61.35
2019-02-21T22:31:26.214Z,61.31
2019-02-21T22:34:14.459Z,60.98
2019-02-21T22:37:02.188Z,60.81
2019-02-21T22:39:50.026Z,60.48
2019-02-21T22:42:37.143Z,60.46
2019-02-21T22:45:24.565Z,60.38
2019-02-21T22:48:12.297Z,60.42
2019-02-21T22:51:00.234Z,60.34
2019-02-21T22:53:47.351Z,60.40
2019-02-21T22:56:34.371Z,60.21
2019-02-21T22:59:22.553Z,60.11
2019-02-21T23:02:10.136Z,60.49
2019-02-21T23:05:15.686Z,60.41
2019-02-21T23:08:03.555Z,60.43
2019-02-21T23:10:51.454Z,60.48
2019-02-21T23:13:38.981Z,60.46
2019-02-21T23:16:26.949Z,60.56
2019-02-21T23:19:15.101Z,60.62
2019-02-21T23:22:03.124Z,60.76
2019-02-21T23:24:51.031Z,60.51
2019-02-21T23:27:38.353Z,60.65
2019-02-21T23:30:25.786Z,60.67
2019-02-21T23:33:13.963Z,60.68
2019-02-21T23:36:01.561Z,61.29
2019-02-21T23:38:48.969Z,60.91
2019-02-21T23:41:36.834Z,60.76
2019-02-21T23:44:24.124Z,60.66
2019-02-21T23:47:11.773Z,61.04
2019-02-21T23:49:59.077Z,61.16
2019-02-21T23:52:46.607Z,61.36
2019-02-21T23:55:34.332Z,61.24
2019-02-21T23:58:21.655Z,61.13
